Time;durP1;ratioP1;P1;durP2;ratioP2;P2;SDS_P1;SDS_P2;PMS_P1;PMS_P2;Temp;Humidity;BMP_temperature;BMP_pressure;BME280_temperature;BME280_humidity;BME280_pressure;Samples;Min_cycle;Max_cycle;Signal;HPM_P1;HPM_P2
2023/06/28 00:01:55;;;;;;;6.88;2.50;;;;;;;;;;10380226;23;20457;-87
2023/06/28 00:06:56;;;;;;;5.32;3.53;;;;;;;;;;10356405;28;20038;-89
2023/06/28 00:11:57;;;;;;;3.58;2.42;;;;;;;;;;10367018;28;20634;-84
2023/06/28 00:16:59;;;;;;;5.22;3.22;;;;;;;;;;10362405;28;20037;-86
2023/06/28 00:22:03;;;;;;;3.40;2.63;;;;;;;;;;10352367;28;20072;-84
2023/06/28 00:27:04;;;;;;;5.80;3.30;;;;;;;;;;10354261;28;20132;-83
2023/06/28 00:32:05;;;;;;;6.38;3.40;;;;;;;;;;10352089;28;20038;-85
2023/06/28 00:37:06;;;;;;;7.15;3.10;;;;;;;;;;10366301;28;20033;-85
2023/06/28 00:42:10;;;;;;;6.43;2.90;;;;;;;;;;10352201;28;20038;-87
2023/06/28 00:47:11;;;;;;;8.45;3.22;;;;;;;;;;10349579;28;20040;-84
2023/06/28 00:52:13;;;;;;;5.78;3.13;;;;;;;;;;10355825;28;20037;-85
2023/06/28 00:57:14;;;;;;;10.60;4.10;;;;;;;;;;10363764;28;20370;-85
2023/06/28 01:02:15;;;;;;;8.48;4.40;;;;;;;;;;10350979;28;20037;-84
2023/06/28 01:07:17;;;;;;;4.28;3.45;;;;;;;;;;10355602;28;20057;-85
2023/06/28 01:12:18;;;;;;;7.72;4.13;;;;;;;;;;10358799;28;20048;-85
2023/06/28 01:17:19;;;;;;;8.05;4.53;;;;;;;;;;10352214;28;20029;-86
2023/06/28 01:22:21;;;;;;;11.68;4.70;;;;;;;;;;10364237;28;20570;-85
2023/06/28 01:27:22;;;;;;;10.15;5.40;;;;;;;;;;10364545;28;20096;-86
2023/06/28 01:32:23;;;;;;;9.40;5.35;;;;;;;;;;10350889;28;20067;-85
2023/06/28 01:37:24;;;;;;;6.28;4.88;;;;;;;;;;10362383;28;20045;-85
2023/06/28 01:42:25;;;;;;;9.18;5.20;;;;;;;;;;10374633;23;20060;-84
2023/06/28 01:47:26;;;;;;;8.13;5.45;;;;;;;;;;10394342;28;20037;-84
2023/06/28 01:52:27;;;;;;;9.02;6.20;;;;;;;;;;10396588;28;20032;-85
2023/06/28 01:57:28;;;;;;;9.80;6.25;;;;;;;;;;10394707;28;20025;-83
2023/06/28 02:02:29;;;;;;;9.80;6.90;;;;;;;;;;10399517;28;20086;-84
2023/06/28 02:07:30;;;;;;;9.98;7.03;;;;;;;;;;10403629;28;20099;-84
2023/06/28 02:12:31;;;;;;;12.05;7.18;;;;;;;;;;10397795;28;20517;-85
2023/06/28 02:17:32;;;;;;;8.40;6.65;;;;;;;;;;10382965;28;20022;-85
2023/06/28 02:22:33;;;;;;;11.05;7.15;;;;;;;;;;10399709;28;20029;-87
2023/06/28 02:27:34;;;;;;;11.98;7.60;;;;;;;;;;10398924;28;20048;-84
2023/06/28 02:32:35;;;;;;;10.88;7.50;;;;;;;;;;10402089;28;20029;-84
2023/06/28 02:37:36;;;;;;;14.53;8.07;;;;;;;;;;10409871;28;20591;-85
2023/06/28 02:42:37;;;;;;;11.63;8.07;;;;;;;;;;10411507;28;20118;-85
2023/06/28 02:47:38;;;;;;;12.83;8.50;;;;;;;;;;10389221;28;20525;-84
2023/06/28 02:52:39;;;;;;;12.10;8.50;;;;;;;;;;10409470;28;20095;-85
2023/06/28 02:57:40;;;;;;;13.20;7.20;;;;;;;;;;10407560;28;20033;-84
2023/06/28 03:02:41;;;;;;;12.98;8.23;;;;;;;;;;10393581;28;20114;-86
2023/06/28 03:07:42;;;;;;;11.20;8.20;;;;;;;;;;10409405;28;20103;-84
2023/06/28 03:12:43;;;;;;;12.45;7.97;;;;;;;;;;10410323;28;20083;-84
2023/06/28 03:17:44;;;;;;;9.32;7.53;;;;;;;;;;10407604;28;20029;-84
2023/06/28 03:22:45;;;;;;;10.73;7.32;;;;;;;;;;10410024;28;20022;-84
2023/06/28 03:27:46;;;;;;;11.23;7.97;;;;;;;;;;10396722;28;20045;-84
2023/06/28 03:32:48;;;;;;;13.13;7.57;;;;;;;;;;10386395;28;20033;-86
2023/06/28 03:37:50;;;;;;;11.85;7.60;;;;;;;;;;10406334;28;20042;-84
2023/06/28 03:42:52;;;;;;;14.38;9.73;;;;;;;;;;10407336;28;20056;-85
2023/06/28 03:47:53;;;;;;;14.63;9.32;;;;;;;;;;10391656;28;20491;-84
2023/06/28 03:52:54;;;;;;;15.73;9.38;;;;;;;;;;10408930;28;20064;-84
2023/06/28 03:57:56;;;;;;;13.40;9.63;;;;;;;;;;10407834;28;20025;-85
2023/06/28 04:02:57;;;;;;;13.50;8.90;;;;;;;;;;10405237;28;20030;-84
2023/06/28 04:07:58;;;;;;;13.32;8.32;;;;;;;;;;10400810;28;20385;-84
2023/06/28 04:12:59;;;;;;;15.45;8.98;;;;;;;;;;10404767;28;20264;-84
2023/06/28 04:18:00;;;;;;;23.23;9.23;;;;;;;;;;10398083;28;20380;-84
2023/06/28 04:23:01;;;;;;;18.33;9.27;;;;;;;;;;10398243;28;20037;-86
2023/06/28 04:28:02;;;;;;;13.70;8.00;;;;;;;;;;10406748;28;20121;-85
2023/06/28 04:33:04;;;;;;;10.88;7.40;;;;;;;;;;10397447;28;20072;-85
2023/06/28 04:38:07;;;;;;;12.75;6.35;;;;;;;;;;10405888;28;20030;-85
2023/06/28 04:43:09;;;;;;;9.77;6.28;;;;;;;;;;10393235;28;20404;-85
2023/06/28 04:48:10;;;;;;;10.13;6.25;;;;;;;;;;10394955;28;20041;-85
2023/06/28 04:53:12;;;;;;;8.90;5.70;;;;;;;;;;10403162;28;20041;-87
2023/06/28 04:58:13;;;;;;;8.20;5.03;;;;;;;;;;10393566;28;20037;-85
2023/06/28 05:03:15;;;;;;;8.45;4.88;;;;;;;;;;10403355;28;20575;-89
2023/06/28 05:08:16;;;;;;;7.82;4.63;;;;;;;;;;10393858;28;20055;-84
2023/06/28 05:13:18;;;;;;;6.97;4.38;;;;;;;;;;10394831;28;20033;-87
2023/06/28 05:18:19;;;;;;;4.70;3.53;;;;;;;;;;10403845;28;20083;-86
2023/06/28 05:23:20;;;;;;;5.80;4.20;;;;;;;;;;10384973;28;20132;-86
2023/06/28 05:28:21;;;;;;;7.00;3.40;;;;;;;;;;10388834;28;20072;-87
2023/06/28 05:33:22;;;;;;;6.03;3.67;;;;;;;;;;10384274;28;20456;-86
2023/06/28 05:38:23;;;;;;;9.60;4.13;;;;;;;;;;10396060;28;20436;-86
2023/06/28 05:43:25;;;;;;;8.55;3.70;;;;;;;;;;10400711;28;20062;-85
2023/06/28 05:48:27;;;;;;;5.65;3.08;;;;;;;;;;10391857;28;20481;-86
2023/06/28 05:53:29;;;;;;;13.43;3.90;;;;;;;;;;10402477;28;20397;-85
2023/06/28 05:58:30;;;;;;;4.70;3.33;;;;;;;;;;10402129;28;20029;-85
2023/06/28 06:03:31;;;;;;;3.65;3.20;;;;;;;;;;10403209;28;20033;-84
2023/06/28 06:08:32;;;;;;;5.60;3.20;;;;;;;;;;10402586;28;20033;-86
2023/06/28 06:13:33;;;;;;;6.88;3.50;;;;;;;;;;10402683;28;20597;-87
2023/06/28 06:18:36;;;;;;;4.60;3.10;;;;;;;;;;10403904;28;20038;-86
2023/06/28 06:23:38;;;;;;;4.28;3.10;;;;;;;;;;10389420;28;20604;-85
2023/06/28 06:28:39;;;;;;;4.82;3.30;;;;;;;;;;10402989;28;20034;-85
2023/06/28 06:33:40;;;;;;;5.20;3.47;;;;;;;;;;10401963;28;20572;-84
2023/06/28 06:38:41;;;;;;;5.63;2.58;;;;;;;;;;10403467;28;20404;-85
2023/06/28 06:43:42;;;;;;;5.70;3.10;;;;;;;;;;10402120;28;20056;-84
2023/06/28 06:48:43;;;;;;;4.50;2.83;;;;;;;;;;10401950;28;20516;-84
2023/06/28 06:53:44;;;;;;;4.80;2.42;;;;;;;;;;10403722;28;20044;-84
2023/06/28 06:58:45;;;;;;;5.85;3.03;;;;;;;;;;10401509;28;20025;-85
2023/06/28 07:03:46;;;;;;;3.40;2.10;;;;;;;;;;10403215;28;20039;-85
2023/06/28 07:08:47;;;;;;;6.55;2.13;;;;;;;;;;10401164;28;20051;-85
2023/06/28 07:13:48;;;;;;;4.03;2.38;;;;;;;;;;10410068;28;20025;-85
2023/06/28 07:18:50;;;;;;;2.90;2.60;;;;;;;;;;10408561;28;20048;-85
2023/06/28 07:23:51;;;;;;;4.35;2.33;;;;;;;;;;10408935;28;20032;-86
2023/06/28 07:28:52;;;;;;;5.90;2.10;;;;;;;;;;10408676;28;20043;-85
2023/06/28 07:33:53;;;;;;;5.03;1.80;;;;;;;;;;10409355;28;20047;-86
2023/06/28 07:38:54;;;;;;;5.85;2.03;;;;;;;;;;10407937;28;20025;-85
2023/06/28 07:43:55;;;;;;;6.72;2.30;;;;;;;;;;10407897;28;20525;-85
2023/06/28 07:48:59;;;;;;;2.53;1.70;;;;;;;;;;10409409;28;20048;-86
2023/06/28 07:54:00;;;;;;;7.13;2.22;;;;;;;;;;10409131;28;20588;-85
2023/06/28 07:59:03;;;;;;;5.15;1.70;;;;;;;;;;10408477;28;20037;-86
2023/06/28 08:04:04;;;;;;;2.90;1.63;;;;;;;;;;10409219;28;20460;-86
2023/06/28 08:09:05;;;;;;;2.55;1.50;;;;;;;;;;10408354;28;20037;-85
2023/06/28 08:14:07;;;;;;;3.63;1.58;;;;;;;;;;10407896;28;20034;-85
2023/06/28 08:19:10;;;;;;;2.15;1.40;;;;;;;;;;10408695;28;20096;-84
2023/06/28 08:24:11;;;;;;;3.78;1.40;;;;;;;;;;10387419;28;20472;-86
2023/06/28 08:29:15;;;;;;;2.28;1.52;;;;;;;;;;10400635;28;20090;-86
2023/06/28 08:34:16;;;;;;;6.60;1.90;;;;;;;;;;10407963;28;20116;-85
2023/06/28 08:39:17;;;;;;;5.07;1.98;;;;;;;;;;10407597;28;20074;-86
2023/06/28 08:44:20;;;;;;;3.47;1.63;;;;;;;;;;10405427;28;20045;-85
2023/06/28 08:49:22;;;;;;;4.25;1.70;;;;;;;;;;10405231;28;20041;-85
2023/06/28 08:54:27;;;;;;;2.35;1.20;;;;;;;;;;10407193;28;20076;-85
2023/06/28 08:59:29;;;;;;;3.60;1.67;;;;;;;;;;10404678;28;20021;-85
2023/06/28 09:04:31;;;;;;;3.83;1.45;;;;;;;;;;10406456;28;20021;-84
2023/06/28 09:09:33;;;;;;;3.50;1.70;;;;;;;;;;10404528;28;20029;-85
2023/06/28 09:14:34;;;;;;;2.85;1.75;;;;;;;;;;10405698;28;20021;-86
2023/06/28 09:19:37;;;;;;;2.03;1.83;;;;;;;;;;10404792;28;20488;-85
2023/06/28 09:24:39;;;;;;;3.75;2.25;;;;;;;;;;10403750;28;20037;-87
2023/06/28 09:29:40;;;;;;;4.75;2.20;;;;;;;;;;10404098;28;20065;-85
2023/06/28 09:34:44;;;;;;;4.68;2.47;;;;;;;;;;10404755;28;20029;-86
2023/06/28 09:39:45;;;;;;;6.68;2.60;;;;;;;;;;10403231;28;20493;-85
2023/06/28 09:44:55;;;;;;;3.65;2.42;;;;;;;;;;10403104;28;20060;-85
2023/06/28 09:49:57;;;;;;;4.28;2.33;;;;;;;;;;10403374;28;20048;-86
2023/06/28 09:54:58;;;;;;;2.78;1.67;;;;;;;;;;10403781;28;20048;-87
2023/06/28 10:00:00;;;;;;;4.70;2.17;;;;;;;;;;10404464;28;20032;-86
2023/06/28 10:05:03;;;;;;;2.13;1.73;;;;;;;;;;10402720;28;20021;-86
2023/06/28 10:10:04;;;;;;;11.18;2.60;;;;;;;;;;10404036;28;20037;-86
2023/06/28 10:15:13;;;;;;;4.65;2.17;;;;;;;;;;10402390;28;20580;-85
2023/06/28 10:20:14;;;;;;;5.20;1.88;;;;;;;;;;10403750;28;20554;-85
2023/06/28 10:25:15;;;;;;;3.83;2.05;;;;;;;;;;10402699;28;20032;-86
2023/06/28 10:30:17;;;;;;;4.55;1.60;;;;;;;;;;10403654;28;21449;-85
2023/06/28 10:35:18;;;;;;;3.10;1.92;;;;;;;;;;10403727;28;20025;-85
2023/06/28 10:40:19;;;;;;;5.32;2.08;;;;;;;;;;10391987;28;20040;-85
2023/06/28 10:45:38;;;;;;;4.95;1.67;;;;;;;;;;10386080;28;20682;-86
2023/06/28 10:50:40;;;;;;;4.43;1.65;;;;;;;;;;10388734;28;20045;-85
2023/06/28 10:56:01;;;;;;;3.45;1.60;;;;;;;;;;10407044;28;20124;-86
2023/06/28 11:01:02;;;;;;;4.05;1.52;;;;;;;;;;10410805;28;20021;-86
2023/06/28 11:06:03;;;;;;;3.88;1.35;;;;;;;;;;10405666;28;20037;-86
2023/06/28 11:11:05;;;;;;;3.15;1.50;;;;;;;;;;10402796;28;20128;-85
2023/06/28 11:16:11;;;;;;;2.42;1.40;;;;;;;;;;10406093;28;20911;-84
2023/06/28 11:21:25;;;;;;;4.03;1.83;;;;;;;;;;10404509;28;20045;-84
2023/06/28 11:26:37;;;;;;;4.00;1.92;;;;;;;;;;10386236;28;20072;-86
2023/06/28 11:31:40;;;;;;;4.45;1.95;;;;;;;;;;10401511;28;20033;-85
2023/06/28 11:36:43;;;;;;;5.45;1.63;;;;;;;;;;10393837;28;20777;-86
2023/06/28 11:41:44;;;;;;;4.95;1.38;;;;;;;;;;10393364;28;20550;-85
2023/06/28 11:46:45;;;;;;;4.18;1.30;;;;;;;;;;10409043;28;20103;-86
2023/06/28 11:51:48;;;;;;;2.58;1.15;;;;;;;;;;10395794;28;20468;-86
2023/06/28 11:56:49;;;;;;;8.35;1.95;;;;;;;;;;10393404;28;20461;-85
2023/06/28 12:02:05;;;;;;;6.32;1.75;;;;;;;;;;10402193;28;20036;-85
2023/06/28 12:07:06;;;;;;;;;;;;;;;;;;10400981;28;20397;-85
2023/06/28 12:12:07;;;;;;;2.45;1.40;;;;;;;;;;10403155;28;19913;-85
2023/06/28 12:17:08;;;;;;;4.22;1.60;;;;;;;;;;10395239;28;20056;-85
2023/06/28 12:22:09;;;;;;;3.45;1.50;;;;;;;;;;10393812;28;20038;-85
2023/06/28 12:27:10;;;;;;;5.93;1.38;;;;;;;;;;10403999;28;20176;-86
2023/06/28 12:32:15;;;;;;;4.75;1.40;;;;;;;;;;10404442;28;20480;-84
2023/06/28 12:37:17;;;;;;;3.10;1.52;;;;;;;;;;10405330;28;20037;-85
2023/06/28 12:42:21;;;;;;;3.55;1.50;;;;;;;;;;10387668;28;20501;-85
2023/06/28 12:47:23;;;;;;;5.07;1.50;;;;;;;;;;10386061;28;20041;-85
2023/06/28 12:52:25;;;;;;;3.90;1.83;;;;;;;;;;10405326;28;20079;-87
2023/06/28 12:57:27;;;;;;;4.53;1.67;;;;;;;;;;10392778;28;20032;-85
2023/06/28 13:02:28;;;;;;;5.97;1.70;;;;;;;;;;10396066;28;20040;-85
2023/06/28 13:07:29;;;;;;;3.17;1.48;;;;;;;;;;10396341;28;20056;-86
2023/06/28 13:12:30;;;;;;;3.40;1.73;;;;;;;;;;10396747;28;20601;-86
2023/06/28 13:17:31;;;;;;;3.30;1.63;;;;;;;;;;10404567;28;20120;-83
2023/06/28 13:22:32;;;;;;;4.72;1.92;;;;;;;;;;10396999;28;20560;-85
2023/06/28 13:27:33;;;;;;;4.40;1.77;;;;;;;;;;10402109;28;20061;-85
2023/06/28 13:32:34;;;;;;;5.55;1.67;;;;;;;;;;10399420;28;20033;-84
2023/06/28 13:37:35;;;;;;;5.05;1.80;;;;;;;;;;10393915;28;20595;-85
2023/06/28 13:42:36;;;;;;;4.32;1.40;;;;;;;;;;10403377;28;20061;-85
2023/06/28 13:47:37;;;;;;;5.18;2.08;;;;;;;;;;10389382;28;20083;-85
2023/06/28 13:52:38;;;;;;;5.35;2.40;;;;;;;;;;10401169;28;20500;-85
2023/06/28 13:57:39;;;;;;;6.78;2.58;;;;;;;;;;10402890;28;20072;-86
2023/06/28 14:02:40;;;;;;;6.70;1.83;;;;;;;;;;10404501;28;20021;-85
2023/06/28 14:07:41;;;;;;;6.15;2.50;;;;;;;;;;10392639;28;20137;-84
2023/06/28 14:12:43;;;;;;;5.28;2.10;;;;;;;;;;10425691;23;20067;-86
2023/06/28 14:17:45;;;;;;;4.20;2.13;;;;;;;;;;10415530;28;20021;-85
2023/06/28 14:22:50;;;;;;;4.45;2.40;;;;;;;;;;10410971;28;20060;-86
2023/06/28 14:27:51;;;;;;;2.67;1.65;;;;;;;;;;10403657;28;20049;-86
2023/06/28 14:32:53;;;;;;;4.50;2.00;;;;;;;;;;10411264;28;20043;-86
2023/06/28 14:37:54;;;;;;;4.68;2.00;;;;;;;;;;10401319;28;20036;-86
2023/06/28 14:42:55;;;;;;;5.10;2.03;;;;;;;;;;10410278;28;20021;-86
2023/06/28 14:47:56;;;;;;;5.13;2.08;;;;;;;;;;10405395;28;20585;-87
2023/06/28 14:52:57;;;;;;;5.53;2.60;;;;;;;;;;10407537;28;20025;-86
2023/06/28 14:57:58;;;;;;;5.80;3.03;;;;;;;;;;10404313;28;20025;-86
2023/06/28 15:02:59;;;;;;;4.82;3.10;;;;;;;;;;10403846;28;20483;-85
2023/06/28 15:08:00;;;;;;;4.95;2.75;;;;;;;;;;10406053;28;20053;-85
2023/06/28 15:13:03;;;;;;;7.20;3.35;;;;;;;;;;10403931;28;20114;-85
2023/06/28 15:18:04;;;;;;;6.90;3.60;;;;;;;;;;10389892;28;20037;-85
2023/06/28 15:23:06;;;;;;;6.90;3.90;;;;;;;;;;10403131;28;20045;-84
2023/06/28 15:28:10;;;;;;;6.78;3.78;;;;;;;;;;10418152;28;20050;-84
2023/06/28 15:33:13;;;;;;;7.07;3.30;;;;;;;;;;10406455;28;20060;-86
2023/06/28 15:38:14;;;;;;;6.97;3.22;;;;;;;;;;10402264;28;20420;-88
2023/06/28 15:43:16;;;;;;;7.07;3.65;;;;;;;;;;10394210;28;20029;-87
2023/06/28 15:48:17;;;;;;;8.15;3.85;;;;;;;;;;10409185;28;20146;-87
2023/06/28 15:53:19;;;;;;;8.55;4.43;;;;;;;;;;10407558;28;20026;-87
2023/06/28 15:58:20;;;;;;;7.70;4.22;;;;;;;;;;10409053;28;20099;-87
2023/06/28 16:03:21;;;;;;;8.30;4.80;;;;;;;;;;10407771;28;20119;-88
2023/06/28 16:08:22;;;;;;;9.02;5.80;;;;;;;;;;10408280;28;20508;-88
2023/06/28 16:13:24;;;;;;;10.13;6.38;;;;;;;;;;10407974;28;20053;-87
2023/06/28 16:18:25;;;;;;;9.07;6.47;;;;;;;;;;10411419;28;20422;-86
2023/06/28 16:23:26;;;;;;;13.65;7.60;;;;;;;;;;10407208;28;20029;-85
2023/06/28 16:28:27;;;;;;;9.93;6.40;;;;;;;;;;10422597;28;20045;-85
2023/06/28 16:33:28;;;;;;;11.38;6.88;;;;;;;;;;10406099;28;20428;-86
2023/06/28 16:38:29;;;;;;;10.15;6.68;;;;;;;;;;10409942;28;20044;-87
2023/06/28 16:43:30;;;;;;;15.45;8.10;;;;;;;;;;10373132;23;20059;-86
2023/06/28 16:48:31;;;;;;;10.02;7.18;;;;;;;;;;10315724;28;20100;-87
2023/06/28 16:53:32;;;;;;;13.40;6.82;;;;;;;;;;10340846;28;20037;-86
2023/06/28 16:58:33;;;;;;;15.55;6.45;;;;;;;;;;10326978;28;20062;-88
2023/06/28 17:03:40;;;;;;;38.13;25.48;;;;;;;;;;10333782;28;20448;-86
2023/06/28 17:08:41;;;;;;;21.80;13.18;;;;;;;;;;10347215;28;20069;-85
2023/06/28 17:13:43;;;;;;;12.27;8.57;;;;;;;;;;10344948;28;20499;-87
2023/06/28 17:18:44;;;;;;;15.48;8.10;;;;;;;;;;10346007;28;20034;-86
2023/06/28 17:23:45;;;;;;;11.75;7.20;;;;;;;;;;10356313;28;20536;-87
2023/06/28 17:28:46;;;;;;;17.88;11.27;;;;;;;;;;10356246;28;20089;-87
2023/06/28 17:33:48;;;;;;;15.00;9.32;;;;;;;;;;10371616;28;20034;-85
2023/06/28 17:38:49;;;;;;;20.30;10.52;;;;;;;;;;10351749;28;20030;-87
2023/06/28 17:43:59;;;;;;;16.77;8.60;;;;;;;;;;10372273;28;20512;-90
2023/06/28 17:49:00;;;;;;;14.43;8.48;;;;;;;;;;10362736;28;20523;-87
2023/06/28 17:54:01;;;;;;;19.08;10.05;;;;;;;;;;10348272;28;20034;-86
2023/06/28 17:59:02;;;;;;;14.52;9.73;;;;;;;;;;10362705;28;20029;-87
2023/06/28 18:04:03;;;;;;;18.65;9.63;;;;;;;;;;10362648;28;20061;-88
2023/06/28 18:09:04;;;;;;;16.85;10.13;;;;;;;;;;10357492;28;20473;-86
2023/06/28 18:14:05;;;;;;;18.33;9.88;;;;;;;;;;10347109;28;20405;-86
2023/06/28 18:19:06;;;;;;;16.92;9.95;;;;;;;;;;10373743;28;20049;-85
2023/06/28 18:24:07;;;;;;;14.93;9.75;;;;;;;;;;10356431;28;20053;-85
2023/06/28 18:29:08;;;;;;;16.70;10.77;;;;;;;;;;10354169;28;20064;-84
2023/06/28 18:34:10;;;;;;;15.88;9.68;;;;;;;;;;10330913;28;20067;-85
2023/06/28 18:39:11;;;;;;;15.30;9.65;;;;;;;;;;10337150;28;20727;-85
2023/06/28 18:44:12;;;;;;;12.05;9.00;;;;;;;;;;10345574;28;20747;-86
2023/06/28 18:49:13;;;;;;;15.07;9.50;;;;;;;;;;10349466;28;20036;-84
2023/06/28 18:54:15;;;;;;;12.60;9.05;;;;;;;;;;10357414;28;20077;-84
2023/06/28 18:59:16;;;;;;;14.77;8.10;;;;;;;;;;10355194;28;20624;-85
2023/06/28 19:04:17;;;;;;;10.85;7.70;;;;;;;;;;10344766;28;20516;-87
2023/06/28 19:09:18;;;;;;;9.35;7.53;;;;;;;;;;10352726;28;20128;-85
2023/06/28 19:14:19;;;;;;;12.55;8.75;;;;;;;;;;10345194;28;20034;-86
2023/06/28 19:19:20;;;;;;;13.70;9.73;;;;;;;;;;10362148;28;20546;-86
2023/06/28 19:24:21;;;;;;;12.38;9.02;;;;;;;;;;10361949;28;20065;-86
2023/06/28 19:29:23;;;;;;;15.75;11.30;;;;;;;;;;10362142;28;20034;-87
2023/06/28 19:34:24;;;;;;;15.23;11.40;;;;;;;;;;10360804;28;20510;-86
2023/06/28 19:39:25;;;;;;;25.33;11.65;;;;;;;;;;10350192;28;20036;-86
2023/06/28 19:44:26;;;;;;;17.85;11.68;;;;;;;;;;10348481;28;20053;-85
2023/06/28 19:49:27;;;;;;;15.75;11.75;;;;;;;;;;10358859;28;20092;-87
2023/06/28 19:54:28;;;;;;;29.20;10.95;;;;;;;;;;10356151;28;20465;-85
2023/06/28 19:59:30;;;;;;;14.88;11.55;;;;;;;;;;10368001;28;20041;-85
2023/06/28 20:04:31;;;;;;;15.13;10.98;;;;;;;;;;10368640;28;20034;-86
2023/06/28 20:09:32;;;;;;;15.23;11.82;;;;;;;;;;10367587;28;20449;-86
2023/06/28 20:14:33;;;;;;;15.70;10.55;;;;;;;;;;10367517;28;20060;-85
2023/06/28 20:19:34;;;;;;;13.18;9.20;;;;;;;;;;10366565;28;20120;-85
2023/06/28 20:24:35;;;;;;;13.18;9.75;;;;;;;;;;10353941;28;20037;-88
2023/06/28 20:29:43;;;;;;;12.02;8.95;;;;;;;;;;10348979;28;20112;-88
2023/06/28 20:34:44;;;;;;;11.25;8.80;;;;;;;;;;10361750;28;20057;-88
2023/06/28 20:39:46;;;;;;;11.55;8.88;;;;;;;;;;10350993;28;20034;-86
2023/06/28 20:44:56;;;;;;;15.15;10.30;;;;;;;;;;10344282;28;20053;-88
2023/06/28 20:50:00;;;;;;;16.25;10.70;;;;;;;;;;10360987;28;20041;-87
2023/06/28 20:55:01;;;;;;;17.23;11.88;;;;;;;;;;10347827;28;20027;-87
2023/06/28 21:00:03;;;;;;;19.13;12.05;;;;;;;;;;10364268;28;20473;-87
2023/06/28 21:05:07;;;;;;;17.58;12.27;;;;;;;;;;10341710;28;20076;-87
2023/06/28 21:10:09;;;;;;;22.27;13.90;;;;;;;;;;10354144;28;20042;-87
2023/06/28 21:15:10;;;;;;;23.30;13.82;;;;;;;;;;10351355;28;20072;-85
2023/06/28 21:20:11;;;;;;;19.63;13.43;;;;;;;;;;10355547;28;20040;-85
2023/06/28 21:25:12;;;;;;;21.08;14.20;;;;;;;;;;10354288;28;20038;-88
2023/06/28 21:30:16;;;;;;;21.85;14.88;;;;;;;;;;10338060;28;20480;-84
2023/06/28 21:35:19;;;;;;;26.70;15.65;;;;;;;;;;10341886;28;20038;-85
2023/06/28 21:40:20;;;;;;;23.17;14.88;;;;;;;;;;10366858;28;20034;-86
2023/06/28 21:45:21;;;;;;;22.23;14.77;;;;;;;;;;10392068;23;20428;-83
2023/06/28 21:50:23;;;;;;;24.55;15.32;;;;;;;;;;10406809;28;20443;-86
2023/06/28 21:55:24;;;;;;;21.67;14.77;;;;;;;;;;10403475;28;20029;-86
2023/06/28 22:00:27;;;;;;;25.40;15.40;;;;;;;;;;10407731;28;20416;-85
2023/06/28 22:05:28;;;;;;;24.90;14.68;;;;;;;;;;10404129;28;20109;-88
2023/06/28 22:10:29;;;;;;;21.05;14.43;;;;;;;;;;10420833;28;20147;-86
2023/06/28 22:15:34;;;;;;;20.13;15.13;;;;;;;;;;10412998;28;20116;-85
2023/06/28 22:20:38;;;;;;;23.88;15.00;;;;;;;;;;10404521;28;20043;-83
2023/06/28 22:25:40;;;;;;;26.27;16.75;;;;;;;;;;10406350;28;20033;-84
2023/06/28 22:30:41;;;;;;;25.75;15.45;;;;;;;;;;10415170;28;20685;-84
2023/06/28 22:35:42;;;;;;;29.63;16.08;;;;;;;;;;10427244;28;20040;-85
2023/06/28 22:40:43;;;;;;;28.73;16.58;;;;;;;;;;10392211;28;20033;-85
2023/06/28 22:45:44;;;;;;;26.88;17.20;;;;;;;;;;10416499;28;20056;-85
2023/06/28 22:50:47;;;;;;;26.55;17.10;;;;;;;;;;10428861;28;20098;-86
2023/06/28 22:55:48;;;;;;;26.80;15.65;;;;;;;;;;10425887;28;20056;-84
2023/06/28 23:00:53;;;;;;;24.02;15.88;;;;;;;;;;10426195;28;20114;-85
2023/06/28 23:05:54;;;;;;;26.98;17.08;;;;;;;;;;10421870;28;20492;-83
2023/06/28 23:10:56;;;;;;;25.17;16.20;;;;;;;;;;10417029;28;20412;-88
2023/06/28 23:15:57;;;;;;;25.38;16.88;;;;;;;;;;10415127;28;20060;-86
2023/06/28 23:20:57;;;;;;;31.23;17.95;;;;;;;;;;10409123;28;20778;-83
2023/06/28 23:25:58;;;;;;;31.17;18.30;;;;;;;;;;10406578;23;20092;-85
2023/06/28 23:31:02;;;;;;;38.90;20.55;;;;;;;;;;10367084;28;20042;-85
2023/06/28 23:36:04;;;;;;;43.08;21.67;;;;;;;;;;10368928;28;20034;-86
2023/06/28 23:41:08;;;;;;;41.63;23.48;;;;;;;;;;10362337;28;20125;-83
2023/06/28 23:46:10;;;;;;;38.47;22.23;;;;;;;;;;10367343;28;20048;-84
2023/06/28 23:51:11;;;;;;;42.20;23.52;;;;;;;;;;10365324;28;20493;-84
2023/06/28 23:56:12;;;;;;;44.45;24.50;;;;;;;;;;10360975;28;20045;-83
